createdAt,value
2023-04-07T00:01:49.982Z,83.60
2023-04-07T00:04:52.969Z,83.25
2023-04-07T00:07:57.382Z,83.11
2023-04-07T00:11:01.004Z,83.28
2023-04-07T00:14:03.818Z,83.03
2023-04-07T00:17:06.610Z,83.31
2023-04-07T00:20:10.045Z,83.40
2023-04-07T00:23:13.958Z,83.51
2023-04-07T00:26:16.408Z,83.43
2023-04-07T00:29:19.347Z,82.53
2023-04-07T00:32:22.896Z,82.39
2023-04-07T00:35:25.976Z,82.76
2023-04-07T00:38:28.786Z,83.05
2023-04-07T00:41:34.515Z,83.12
2023-04-07T00:44:37.016Z,83.01
2023-04-07T00:47:40.326Z,82.94
2023-04-07T00:50:45.276Z,82.86
2023-04-07T00:53:49.578Z,82.19
2023-04-07T00:56:52.951Z,82.27
2023-04-07T00:59:56.416Z,82.29
2023-04-07T01:03:07.832Z,82.14
2023-04-07T01:06:15.728Z,82.27
2023-04-07T01:09:23.303Z,82.35
2023-04-07T01:12:32.622Z,82.17
2023-04-07T01:15:36.691Z,81.83
2023-04-07T01:18:40.619Z,81.61
2023-04-07T01:21:45.058Z,82.00
2023-04-07T01:25:10.246Z,82.12
2023-04-07T01:28:38.229Z,81.78
2023-04-07T01:31:41.901Z,81.86
2023-04-07T01:34:46.037Z,81.66
2023-04-07T01:37:50.642Z,81.74
2023-04-07T01:40:56.673Z,81.44
2023-04-07T01:44:01.349Z,81.22
2023-04-07T01:47:04.972Z,81.60
2023-04-07T01:50:09.412Z,81.98
2023-04-07T01:53:12.801Z,81.85
2023-04-07T01:56:15.831Z,81.52
2023-04-07T01:59:20.299Z,81.39
2023-04-07T02:02:23.654Z,81.07
2023-04-07T02:05:28.784Z,81.51
2023-04-07T02:08:32.919Z,81.39
2023-04-07T02:11:36.338Z,80.87
2023-04-07T02:14:39.221Z,80.95
2023-04-07T02:17:44.990Z,81.53
2023-04-07T02:20:50.805Z,81.31
2023-04-07T02:23:53.780Z,81.67
2023-04-07T02:26:57.431Z,81.83
2023-04-07T02:30:00.737Z,81.94
2023-04-07T02:33:03.551Z,82.07
2023-04-07T02:36:06.530Z,82.39
2023-04-07T02:39:09.674Z,83.20
2023-04-07T02:42:12.803Z,82.64
2023-04-07T02:45:16.122Z,82.37
2023-04-07T02:48:18.974Z,82.17
2023-04-07T02:51:21.606Z,81.28
2023-04-07T02:54:24.429Z,81.66
2023-04-07T02:57:27.016Z,81.66
2023-04-07T03:00:30.573Z,80.98
2023-04-07T03:03:33.615Z,81.77
2023-04-07T03:06:36.844Z,80.89
2023-04-07T03:09:39.779Z,79.68
2023-04-07T03:12:43.516Z,81.09
2023-04-07T03:15:47.380Z,80.92
2023-04-07T03:18:51.056Z,80.95
2023-04-07T03:21:54.157Z,80.91
2023-04-07T03:24:57.432Z,80.88
2023-04-07T03:28:00.891Z,80.48
2023-04-07T03:31:05.009Z,80.60
2023-04-07T03:34:07.867Z,79.96
2023-04-07T03:37:10.869Z,80.00
2023-04-07T03:40:14.052Z,79.81
2023-04-07T03:43:18.555Z,79.87
2023-04-07T03:46:21.523Z,80.15
2023-04-07T03:49:24.617Z,79.52
2023-04-07T03:52:27.663Z,79.40
2023-04-07T03:55:32.115Z,78.88
2023-04-07T03:58:36.053Z,78.90
2023-04-07T04:01:40.601Z,79.05
2023-04-07T04:04:43.862Z,79.46
2023-04-07T04:07:46.717Z,79.86
2023-04-07T04:10:50.317Z,80.26
2023-04-07T04:13:53.225Z,80.27
2023-04-07T04:16:56.472Z,80.28
2023-04-07T04:19:59.918Z,80.68
2023-04-07T04:23:04.440Z,80.52
2023-04-07T04:26:07.162Z,79.67
2023-04-07T04:29:10.313Z,79.67
2023-04-07T04:32:13.568Z,79.46
2023-04-07T04:35:18.277Z,79.48
2023-04-07T04:38:22.054Z,79.30
2023-04-07T04:41:25.603Z,79.77
2023-04-07T04:44:30.181Z,79.63
2023-04-07T04:47:33.378Z,79.13
2023-04-07T04:50:37.508Z,78.72
2023-04-07T04:53:41.921Z,79.00
2023-04-07T04:56:44.629Z,79.37
2023-04-07T04:59:47.816Z,79.16
2023-04-07T05:02:50.857Z,78.46
2023-04-07T05:05:54.142Z,78.39
2023-04-07T05:08:57.130Z,78.80
2023-04-07T05:12:02.585Z,79.38
2023-04-07T05:15:06.319Z,78.76
2023-04-07T05:18:09.638Z,78.54
2023-04-07T05:21:12.335Z,78.15
2023-04-07T05:24:15.891Z,78.11
2023-04-07T05:27:20.522Z,77.79
2023-04-07T05:30:24.313Z,77.09
2023-04-07T05:33:28.537Z,77.29
2023-04-07T05:36:31.933Z,77.40
2023-04-07T05:39:34.685Z,76.90
2023-04-07T05:42:38.877Z,76.75
2023-04-07T05:45:41.619Z,76.80
2023-04-07T05:48:44.580Z,77.29
2023-04-07T05:51:49.275Z,76.96
2023-04-07T05:54:52.205Z,76.71
2023-04-07T05:57:55.460Z,75.88
2023-04-07T06:00:59.943Z,75.32
2023-04-07T06:04:03.654Z,75.31
2023-04-07T06:07:07.874Z,74.52
2023-04-07T06:10:11.003Z,75.08
2023-04-07T06:13:13.976Z,74.28
2023-04-07T06:16:19.502Z,75.42
2023-04-07T06:19:22.388Z,74.65
2023-04-07T06:22:25.624Z,75.87
2023-04-07T06:25:28.243Z,76.12
2023-04-07T06:28:31.337Z,75.54
2023-04-07T06:31:34.283Z,75.42
2023-04-07T06:34:37.444Z,75.72
2023-04-07T06:37:40.471Z,75.14
2023-04-07T06:40:43.666Z,75.84
2023-04-07T06:43:51.422Z,75.98
2023-04-07T06:46:55.599Z,75.60
2023-04-07T06:49:58.246Z,75.95
2023-04-07T06:53:01.351Z,76.08
2023-04-07T06:56:08.310Z,76.51
2023-04-07T06:59:11.341Z,76.25
2023-04-07T07:02:14.176Z,76.77
2023-04-07T07:05:17.373Z,77.10
2023-04-07T07:08:20.014Z,77.46
2023-04-07T07:11:22.906Z,77.56
2023-04-07T07:14:25.793Z,77.07
2023-04-07T07:17:28.606Z,76.57
2023-04-07T07:20:32.919Z,76.69
2023-04-07T07:23:35.843Z,77.37
2023-04-07T07:26:38.424Z,78.25
2023-04-07T07:29:41.402Z,76.89
2023-04-07T07:32:44.031Z,76.97
2023-04-07T07:35:46.941Z,76.88
2023-04-07T07:38:52.701Z,77.52
2023-04-07T07:44:59.590Z,76.97
2023-04-07T07:48:02.447Z,77.66
2023-04-07T07:51:06.200Z,78.01
2023-04-07T07:54:09.760Z,79.06
2023-04-07T07:57:12.393Z,78.58
2023-04-07T08:00:15.640Z,79.09
2023-04-07T08:03:20.045Z,78.24
2023-04-07T08:06:23.491Z,78.56
2023-04-07T08:09:26.391Z,78.69
2023-04-07T08:12:28.957Z,78.41
2023-04-07T08:15:31.847Z,79.40
2023-04-07T08:18:34.451Z,80.22
2023-04-07T08:21:37.306Z,79.39
2023-04-07T08:24:39.818Z,79.73
2023-04-07T08:27:42.666Z,78.88
2023-04-07T08:30:45.592Z,79.73
2023-04-07T08:33:48.731Z,80.10
2023-04-07T08:36:51.591Z,79.41
2023-04-07T08:39:54.550Z,80.10
2023-04-07T08:42:58.350Z,81.22
2023-04-07T08:46:02.858Z,80.74
2023-04-07T08:49:09.777Z,81.43
2023-04-07T08:52:16.029Z,80.84
2023-04-07T08:55:18.636Z,80.88
2023-04-07T08:58:21.866Z,81.71
2023-04-07T09:01:25.570Z,80.13
2023-04-07T09:04:28.794Z,79.52
2023-04-07T09:07:33.262Z,80.89
2023-04-07T09:10:36.854Z,81.38
2023-04-07T09:13:39.393Z,80.78
2023-04-07T09:16:42.280Z,81.23
2023-04-07T09:19:44.851Z,80.21
2023-04-07T09:22:48.070Z,80.61
2023-04-07T09:25:50.829Z,80.92
2023-04-07T09:29:02.900Z,78.76
2023-04-07T09:32:05.673Z,79.43
2023-04-07T09:35:09.357Z,81.04
2023-04-07T09:38:12.034Z,80.59
2023-04-07T09:41:16.883Z,80.27
2023-04-07T09:44:20.495Z,80.86
2023-04-07T09:47:29.441Z,80.74
2023-04-07T09:50:41.588Z,80.29
2023-04-07T09:53:50.534Z,78.86
2023-04-07T09:56:53.488Z,78.97
2023-04-07T09:59:57.196Z,79.72
2023-04-07T10:03:00.708Z,78.35
2023-04-07T10:06:04.888Z,78.28
2023-04-07T10:09:07.484Z,78.29
2023-04-07T10:12:11.111Z,79.01
2023-04-07T10:15:16.923Z,77.97
2023-04-07T10:18:21.111Z,76.94
2023-04-07T10:21:23.983Z,76.75
2023-04-07T10:24:47.156Z,76.83
2023-04-07T10:27:57.771Z,77.18
2023-04-07T10:31:01.738Z,76.51
2023-04-07T10:34:05.849Z,76.64
2023-04-07T10:37:13.519Z,76.47
2023-04-07T10:40:21.139Z,76.03
2023-04-07T10:43:41.793Z,75.86
2023-04-07T10:46:48.465Z,76.85
2023-04-07T10:50:20.004Z,77.26
2023-04-07T10:53:22.686Z,76.38
2023-04-07T10:56:25.918Z,75.71
2023-04-07T10:59:32.354Z,74.45
2023-04-07T11:02:36.005Z,75.00
2023-04-07T11:05:40.067Z,74.55
2023-04-07T11:08:47.534Z,73.56
2023-04-07T11:11:52.529Z,74.22
2023-04-07T11:14:56.575Z,72.96
2023-04-07T11:18:12.779Z,73.23
2023-04-07T11:21:19.610Z,72.95
2023-04-07T11:24:37.828Z,71.67
2023-04-07T11:27:41.123Z,72.64
2023-04-07T11:30:47.195Z,73.09
2023-04-07T11:33:59.182Z,71.51
2023-04-07T11:37:24.958Z,73.29
2023-04-07T11:40:37.096Z,73.09
2023-04-07T11:43:42.126Z,73.00
2023-04-07T11:47:00.098Z,71.63
2023-04-07T11:50:03.195Z,70.94
2023-04-07T11:53:06.256Z,71.11
2023-04-07T11:56:17.121Z,71.36
2023-04-07T11:59:23.204Z,69.20
2023-04-07T12:02:33.835Z,70.48
2023-04-07T12:05:46.200Z,70.18
2023-04-07T12:08:48.793Z,70.41
2023-04-07T12:11:51.898Z,69.92
2023-04-07T12:14:55.439Z,69.97
2023-04-07T12:17:58.422Z,70.09
2023-04-07T12:21:01.509Z,69.34
2023-04-07T12:24:04.504Z,68.83
2023-04-07T12:27:07.094Z,69.20
2023-04-07T12:30:10.710Z,68.14
2023-04-07T12:33:15.753Z,68.40
2023-04-07T12:36:18.633Z,68.77
2023-04-07T12:39:21.562Z,69.36
2023-04-07T12:42:24.634Z,70.00
2023-04-07T12:45:27.502Z,68.91
2023-04-07T12:48:30.531Z,67.38
2023-04-07T12:51:35.994Z,68.45
2023-04-07T12:54:39.253Z,69.41
2023-04-07T12:57:41.934Z,68.20
2023-04-07T13:00:46.919Z,69.61
2023-04-07T13:03:49.907Z,68.68
2023-04-07T13:06:53.922Z,68.42
2023-04-07T13:09:57.278Z,68.12
2023-04-07T13:13:00.574Z,68.07
2023-04-07T13:16:03.304Z,67.26
2023-04-07T13:19:06.226Z,67.17
2023-04-07T13:22:08.876Z,67.47
2023-04-07T13:25:12.049Z,68.37
2023-04-07T13:28:16.372Z,68.63
2023-04-07T13:31:21.912Z,68.64
2023-04-07T13:34:24.804Z,67.01
2023-04-07T13:37:27.736Z,67.50
2023-04-07T13:40:31.163Z,67.89
2023-04-07T13:43:34.026Z,68.13
2023-04-07T13:46:36.858Z,67.49
2023-04-07T13:49:39.782Z,67.91
2023-04-07T13:52:42.806Z,68.42
2023-04-07T13:55:46.110Z,68.03
2023-04-07T13:58:48.710Z,68.54
2023-04-07T14:01:51.721Z,69.11
2023-04-07T14:04:54.613Z,68.42
2023-04-07T14:07:57.341Z,68.34
2023-04-07T14:11:02.436Z,69.40
2023-04-07T14:14:06.228Z,69.81
2023-04-07T14:17:09.445Z,69.14
2023-04-07T14:20:12.187Z,69.13
2023-04-07T14:23:20.659Z,69.25
2023-04-07T14:26:29.314Z,69.39
2023-04-07T14:29:32.334Z,69.08
2023-04-07T14:32:35.299Z,69.33
2023-04-07T14:35:38.586Z,69.47
2023-04-07T14:38:41.314Z,68.90
2023-04-07T14:41:47.794Z,69.48
2023-04-07T14:44:51.024Z,67.90
2023-04-07T14:47:54.024Z,68.54
2023-04-07T14:51:08.285Z,68.61
2023-04-07T14:54:12.748Z,69.09
2023-04-07T14:57:16.670Z,69.51
2023-04-07T15:00:20.455Z,69.54
2023-04-07T15:03:23.229Z,68.67
2023-04-07T15:06:27.252Z,69.07
2023-04-07T15:09:29.862Z,68.87
2023-04-07T15:12:33.461Z,68.91
2023-04-07T15:15:36.084Z,69.01
2023-04-07T15:18:41.126Z,69.35
2023-04-07T15:21:44.315Z,69.54
2023-04-07T15:24:47.868Z,69.35
2023-04-07T15:27:50.564Z,70.14
2023-04-07T15:30:54.228Z,69.88
2023-04-07T15:33:56.927Z,69.60
2023-04-07T15:37:00.705Z,70.48
2023-04-07T15:55:11.773Z,72.24
2023-04-07T15:58:14.912Z,72.31
2023-04-07T16:01:17.613Z,72.55
2023-04-07T16:04:20.881Z,72.80
2023-04-07T16:07:23.665Z,73.09
2023-04-07T16:10:27.522Z,73.40
2023-04-07T16:13:30.227Z,72.13
2023-04-07T16:16:36.065Z,72.93
2023-04-07T16:19:38.898Z,73.29
2023-04-07T16:22:48.717Z,72.86
2023-04-07T16:25:51.500Z,73.66
2023-04-07T16:28:54.667Z,73.97
2023-04-07T16:31:57.563Z,74.19
2023-04-07T16:35:01.050Z,74.08
2023-04-07T16:38:06.094Z,74.61
2023-04-07T16:41:09.191Z,74.88
2023-04-07T16:44:12.128Z,75.01
2023-04-07T16:47:15.101Z,75.26
2023-04-07T16:50:19.361Z,75.18
2023-04-07T16:53:22.471Z,75.33
2023-04-07T16:56:26.143Z,75.55
2023-04-07T16:59:31.149Z,76.03
2023-04-07T17:02:33.978Z,76.32
2023-04-07T17:05:37.029Z,76.10
2023-04-07T17:08:39.790Z,76.38
2023-04-07T17:11:42.818Z,76.77
2023-04-07T17:14:46.166Z,76.78
2023-04-07T17:17:50.211Z,77.13
2023-04-07T17:20:53.165Z,76.39
2023-04-07T17:23:56.331Z,75.90
2023-04-07T17:26:58.953Z,76.57
2023-04-07T17:30:02.874Z,76.15
2023-04-07T17:33:08.371Z,75.83
2023-04-07T17:36:12.154Z,77.09
2023-04-07T17:39:15.000Z,77.30
2023-04-07T17:42:18.074Z,77.70
2023-04-07T17:45:21.080Z,77.54
2023-04-07T17:48:24.225Z,77.50
2023-04-07T17:51:27.763Z,78.12
2023-04-07T17:54:30.819Z,78.34
2023-04-07T17:57:33.726Z,78.58
2023-04-07T18:00:37.170Z,78.23
2023-04-07T18:03:40.659Z,79.01
2023-04-07T18:06:44.112Z,79.02
2023-04-07T18:09:47.024Z,78.85
2023-04-07T18:12:49.776Z,79.76
2023-04-07T18:15:53.087Z,79.90
2023-04-07T18:18:56.865Z,79.41
2023-04-07T18:22:00.960Z,79.73
2023-04-07T18:25:03.711Z,80.51
2023-04-07T18:28:06.905Z,80.95
2023-04-07T18:31:10.090Z,81.10
2023-04-07T18:34:13.375Z,81.60
2023-04-07T18:37:16.525Z,81.94
2023-04-07T18:40:19.670Z,82.78
2023-04-07T18:43:22.584Z,83.39
2023-04-07T18:46:25.846Z,83.19
2023-04-07T18:49:29.205Z,83.66
2023-04-07T18:52:32.193Z,84.12
2023-04-07T18:55:34.866Z,84.51
2023-04-07T18:58:43.890Z,84.96
2023-04-07T19:01:47.167Z,84.85
2023-04-07T19:04:50.529Z,84.38
2023-04-07T19:07:53.257Z,85.00
2023-04-07T19:10:56.871Z,84.65
2023-04-07T19:13:59.594Z,84.56
2023-04-07T19:17:05.004Z,84.24
2023-04-07T19:20:08.724Z,84.44
2023-04-07T19:23:11.862Z,84.57
2023-04-07T19:26:17.774Z,85.36
2023-04-07T19:29:22.060Z,86.10
2023-04-07T19:32:26.691Z,86.50
2023-04-07T19:35:32.110Z,86.69
2023-04-07T19:38:34.754Z,86.58
2023-04-07T19:41:37.894Z,87.04
2023-04-07T19:44:40.620Z,86.91
2023-04-07T19:47:44.492Z,87.08
2023-04-07T19:50:49.490Z,87.24
2023-04-07T19:53:52.478Z,87.79
2023-04-07T19:56:55.082Z,87.61
2023-04-07T19:59:57.969Z,87.05
2023-04-07T20:03:00.905Z,87.60
2023-04-07T20:06:04.041Z,87.96
2023-04-07T20:09:06.770Z,87.96
2023-04-07T20:12:09.804Z,87.85
2023-04-07T20:15:12.702Z,87.46
2023-04-07T20:18:18.478Z,87.66
2023-04-07T20:21:21.758Z,87.73
2023-04-07T20:24:24.746Z,87.76
2023-04-07T20:27:27.270Z,87.68
2023-04-07T20:30:31.806Z,87.16
2023-04-07T20:33:34.467Z,87.09
2023-04-07T20:36:37.305Z,87.16
2023-04-07T20:39:39.868Z,86.76
2023-04-07T20:42:42.702Z,86.27
2023-04-07T20:45:47.453Z,86.28
2023-04-07T20:48:51.097Z,86.42
2023-04-07T20:51:53.886Z,86.56
2023-04-07T20:54:56.738Z,87.26
2023-04-07T20:57:59.294Z,87.61
2023-04-07T21:01:02.398Z,86.65
2023-04-07T21:04:05.197Z,86.83
2023-04-07T21:07:08.048Z,87.02
2023-04-07T21:10:11.162Z,87.08
2023-04-07T21:13:15.869Z,87.13
2023-04-07T21:16:19.083Z,87.43
2023-04-07T21:19:22.281Z,86.66
2023-04-07T21:22:24.929Z,86.54
2023-04-07T21:25:27.755Z,87.45
2023-04-07T21:28:30.589Z,87.14
2023-04-07T21:31:33.704Z,87.08
2023-04-07T21:34:36.346Z,87.24
2023-04-07T21:37:39.232Z,87.23
2023-04-07T21:40:42.032Z,86.90
2023-04-07T21:43:44.896Z,86.98
2023-04-07T21:46:47.889Z,86.51
2023-04-07T21:49:50.802Z,86.87
2023-04-07T21:52:53.504Z,87.18
2023-04-07T21:55:56.416Z,86.31
2023-04-07T21:58:59.190Z,86.54
2023-04-07T22:02:03.456Z,86.89
2023-04-07T22:05:06.508Z,87.08
2023-04-07T22:08:09.066Z,87.41
2023-04-07T22:11:11.927Z,86.97
2023-04-07T22:14:14.409Z,87.79
2023-04-07T22:17:17.417Z,88.11
2023-04-07T22:20:20.665Z,88.02
2023-04-07T22:23:23.469Z,87.80
2023-04-07T22:26:26.192Z,88.03
2023-04-07T22:29:29.230Z,87.54
2023-04-07T22:32:31.729Z,87.59
2023-04-07T22:35:34.591Z,88.17
2023-04-07T22:38:37.168Z,88.17
2023-04-07T22:41:40.102Z,87.88
2023-04-07T22:44:42.613Z,88.64
2023-04-07T22:47:45.588Z,87.99
2023-04-07T22:50:48.331Z,87.13
2023-04-07T22:53:51.160Z,87.66
2023-04-07T22:56:53.694Z,88.19
2023-04-07T22:59:56.747Z,88.54
2023-04-07T23:02:59.499Z,88.67
2023-04-07T23:06:02.886Z,88.95
2023-04-07T23:09:05.856Z,88.56
2023-04-07T23:12:08.909Z,89.55
2023-04-07T23:15:11.633Z,89.25
2023-04-07T23:18:14.666Z,89.91
2023-04-07T23:21:17.267Z,89.86
2023-04-07T23:24:20.200Z,89.87
2023-04-07T23:27:22.742Z,90.06
2023-04-07T23:30:28.721Z,90.02
2023-04-07T23:33:34.064Z,90.08
2023-04-07T23:36:37.101Z,90.67
2023-04-07T23:39:39.621Z,90.68
2023-04-07T23:42:42.447Z,90.93
2023-04-07T23:45:45.004Z,90.80
2023-04-07T23:48:47.933Z,90.95
2023-04-07T23:51:50.771Z,91.07
2023-04-07T23:54:53.627Z,91.09
2023-04-07T23:57:56.376Z,91.51
